sensor_id;sensor_type;location;lat;lon;timestamp;pressure;altitude;pressure_sealevel;temperature
5571;BMP180;2808;51.240;6.794;2024-01-16T00:02:17;100377.00;;;1.80
5571;BMP180;2808;51.240;6.794;2024-01-16T00:04:45;100369.00;;;1.80
5571;BMP180;2808;51.240;6.794;2024-01-16T00:07:12;100373.00;;;1.80
5571;BMP180;2808;51.240;6.794;2024-01-16T00:09:40;100367.00;;;1.90
5571;BMP180;2808;51.240;6.794;2024-01-16T00:12:08;100370.00;;;1.80
5571;BMP180;2808;51.240;6.794;2024-01-16T00:14:37;100376.00;;;1.80
5571;BMP180;2808;51.240;6.794;2024-01-16T00:17:06;100387.00;;;1.80
5571;BMP180;2808;51.240;6.794;2024-01-16T00:19:36;100380.00;;;1.80
5571;BMP180;2808;51.240;6.794;2024-01-16T00:22:04;100380.00;;;1.90
5571;BMP180;2808;51.240;6.794;2024-01-16T00:24:32;100374.00;;;1.90
5571;BMP180;2808;51.240;6.794;2024-01-16T00:26:59;100372.00;;;1.90
5571;BMP180;2808;51.240;6.794;2024-01-16T00:29:27;100376.00;;;1.80
5571;BMP180;2808;51.240;6.794;2024-01-16T00:31:55;100378.00;;;1.80
5571;BMP180;2808;51.240;6.794;2024-01-16T00:34:23;100380.00;;;1.80
5571;BMP180;2808;51.240;6.794;2024-01-16T00:36:50;100389.00;;;1.80
5571;BMP180;2808;51.240;6.794;2024-01-16T00:39:18;100385.00;;;1.80
5571;BMP180;2808;51.240;6.794;2024-01-16T00:41:45;100392.00;;;1.90
5571;BMP180;2808;51.240;6.794;2024-01-16T00:44:13;100390.00;;;1.90
5571;BMP180;2808;51.240;6.794;2024-01-16T00:46:40;100390.00;;;1.80
5571;BMP180;2808;51.240;6.794;2024-01-16T00:49:09;100390.00;;;1.90
5571;BMP180;2808;51.240;6.794;2024-01-16T00:51:36;100394.00;;;1.90
5571;BMP180;2808;51.240;6.794;2024-01-16T00:54:04;100395.00;;;1.90
5571;BMP180;2808;51.240;6.794;2024-01-16T00:56:34;100394.00;;;1.80
5571;BMP180;2808;51.240;6.794;2024-01-16T00:59:02;100404.00;;;1.80
5571;BMP180;2808;51.240;6.794;2024-01-16T01:01:29;100408.00;;;1.80
5571;BMP180;2808;51.240;6.794;2024-01-16T01:03:57;100407.00;;;1.80
5571;BMP180;2808;51.240;6.794;2024-01-16T01:06:25;100406.00;;;1.80
5571;BMP180;2808;51.240;6.794;2024-01-16T01:08:53;100414.00;;;1.80
5571;BMP180;2808;51.240;6.794;2024-01-16T01:11:20;100414.00;;;1.80
5571;BMP180;2808;51.240;6.794;2024-01-16T01:13:48;100418.00;;;1.80
5571;BMP180;2808;51.240;6.794;2024-01-16T01:16:15;100411.00;;;1.80
5571;BMP180;2808;51.240;6.794;2024-01-16T01:18:43;100415.00;;;1.80
5571;BMP180;2808;51.240;6.794;2024-01-16T01:21:10;100423.00;;;1.80
5571;BMP180;2808;51.240;6.794;2024-01-16T01:23:39;100427.00;;;1.80
5571;BMP180;2808;51.240;6.794;2024-01-16T01:26:06;100419.00;;;1.80
5571;BMP180;2808;51.240;6.794;2024-01-16T01:28:34;100422.00;;;1.80
5571;BMP180;2808;51.240;6.794;2024-01-16T01:31:01;100425.00;;;1.80
5571;BMP180;2808;51.240;6.794;2024-01-16T01:33:29;100428.00;;;1.80
5571;BMP180;2808;51.240;6.794;2024-01-16T01:35:56;100425.00;;;1.80
5571;BMP180;2808;51.240;6.794;2024-01-16T01:38:24;100427.00;;;1.70
5571;BMP180;2808;51.240;6.794;2024-01-16T01:40:53;100433.00;;;1.80
5571;BMP180;2808;51.240;6.794;2024-01-16T01:43:21;100434.00;;;1.70
5571;BMP180;2808;51.240;6.794;2024-01-16T01:46:06;100436.00;;;1.70
5571;BMP180;2808;51.240;6.794;2024-01-16T01:51:05;100429.00;;;1.70
5571;BMP180;2808;51.240;6.794;2024-01-16T01:53:34;100437.00;;;1.70
5571;BMP180;2808;51.240;6.794;2024-01-16T01:56:10;100429.00;;;1.70
5571;BMP180;2808;51.240;6.794;2024-01-16T01:58:41;100436.00;;;1.80
5571;BMP180;2808;51.240;6.794;2024-01-16T02:01:11;100438.00;;;1.80
5571;BMP180;2808;51.240;6.794;2024-01-16T02:03:42;100443.00;;;1.80
5571;BMP180;2808;51.240;6.794;2024-01-16T02:06:10;100440.00;;;1.80
5571;BMP180;2808;51.240;6.794;2024-01-16T02:08:38;100431.00;;;1.80
5571;BMP180;2808;51.240;6.794;2024-01-16T02:11:08;100434.00;;;1.80
5571;BMP180;2808;51.240;6.794;2024-01-16T02:13:35;100440.00;;;1.80
5571;BMP180;2808;51.240;6.794;2024-01-16T02:16:03;100437.00;;;1.80
5571;BMP180;2808;51.240;6.794;2024-01-16T02:18:32;100446.00;;;1.80
5571;BMP180;2808;51.240;6.794;2024-01-16T02:21:00;100437.00;;;1.80
5571;BMP180;2808;51.240;6.794;2024-01-16T02:23:31;100440.00;;;1.80
5571;BMP180;2808;51.240;6.794;2024-01-16T02:26:01;100444.00;;;1.80
5571;BMP180;2808;51.240;6.794;2024-01-16T02:28:30;100445.00;;;1.80
5571;BMP180;2808;51.240;6.794;2024-01-16T02:30:57;100446.00;;;1.80
5571;BMP180;2808;51.240;6.794;2024-01-16T02:33:24;100450.00;;;1.80
5571;BMP180;2808;51.240;6.794;2024-01-16T02:35:52;100440.00;;;1.80
5571;BMP180;2808;51.240;6.794;2024-01-16T02:38:19;100445.00;;;1.80
5571;BMP180;2808;51.240;6.794;2024-01-16T02:40:48;100447.00;;;1.80
5571;BMP180;2808;51.240;6.794;2024-01-16T02:43:15;100446.00;;;1.80
5571;BMP180;2808;51.240;6.794;2024-01-16T02:45:43;100432.00;;;1.80
5571;BMP180;2808;51.240;6.794;2024-01-16T02:48:10;100444.00;;;1.80
5571;BMP180;2808;51.240;6.794;2024-01-16T02:50:38;100439.00;;;1.80
5571;BMP180;2808;51.240;6.794;2024-01-16T02:53:06;100429.00;;;1.80
5571;BMP180;2808;51.240;6.794;2024-01-16T02:55:33;100432.00;;;1.80
5571;BMP180;2808;51.240;6.794;2024-01-16T02:58:02;100435.00;;;1.80
5571;BMP180;2808;51.240;6.794;2024-01-16T03:00:30;100427.00;;;1.70
5571;BMP180;2808;51.240;6.794;2024-01-16T03:02:58;100422.00;;;1.70
5571;BMP180;2808;51.240;6.794;2024-01-16T03:05:25;100424.00;;;1.70
5571;BMP180;2808;51.240;6.794;2024-01-16T03:07:53;100427.00;;;1.60
5571;BMP180;2808;51.240;6.794;2024-01-16T03:10:20;100429.00;;;1.70
5571;BMP180;2808;51.240;6.794;2024-01-16T03:12:47;100430.00;;;1.60
5571;BMP180;2808;51.240;6.794;2024-01-16T03:15:16;100432.00;;;1.60
5571;BMP180;2808;51.240;6.794;2024-01-16T03:17:44;100425.00;;;1.60
5571;BMP180;2808;51.240;6.794;2024-01-16T03:20:12;100422.00;;;1.60
5571;BMP180;2808;51.240;6.794;2024-01-16T03:22:39;100425.00;;;1.60
5571;BMP180;2808;51.240;6.794;2024-01-16T03:25:08;100419.00;;;1.60
5571;BMP180;2808;51.240;6.794;2024-01-16T03:27:36;100431.00;;;1.60
5571;BMP180;2808;51.240;6.794;2024-01-16T03:30:05;100432.00;;;1.70
5571;BMP180;2808;51.240;6.794;2024-01-16T03:32:35;100434.00;;;1.70
5571;BMP180;2808;51.240;6.794;2024-01-16T03:35:03;100430.00;;;1.70
5571;BMP180;2808;51.240;6.794;2024-01-16T03:37:31;100426.00;;;1.70
5571;BMP180;2808;51.240;6.794;2024-01-16T03:39:59;100432.00;;;1.70
5571;BMP180;2808;51.240;6.794;2024-01-16T03:42:29;100432.00;;;1.60
5571;BMP180;2808;51.240;6.794;2024-01-16T03:44:57;100422.00;;;1.70
5571;BMP180;2808;51.240;6.794;2024-01-16T03:47:24;100433.00;;;1.70
5571;BMP180;2808;51.240;6.794;2024-01-16T03:49:53;100436.00;;;1.70
5571;BMP180;2808;51.240;6.794;2024-01-16T03:52:20;100437.00;;;1.70
5571;BMP180;2808;51.240;6.794;2024-01-16T03:54:48;100428.00;;;1.70
5571;BMP180;2808;51.240;6.794;2024-01-16T03:57:15;100431.00;;;1.70
5571;BMP180;2808;51.240;6.794;2024-01-16T03:59:43;100436.00;;;1.70
5571;BMP180;2808;51.240;6.794;2024-01-16T04:02:10;100439.00;;;1.70
5571;BMP180;2808;51.240;6.794;2024-01-16T04:04:38;100440.00;;;1.70
5571;BMP180;2808;51.240;6.794;2024-01-16T04:07:06;100439.00;;;1.60
5571;BMP180;2808;51.240;6.794;2024-01-16T04:09:34;100437.00;;;1.70
5571;BMP180;2808;51.240;6.794;2024-01-16T04:12:01;100444.00;;;1.70
5571;BMP180;2808;51.240;6.794;2024-01-16T04:14:29;100444.00;;;1.70
5571;BMP180;2808;51.240;6.794;2024-01-16T04:16:56;100435.00;;;1.70
5571;BMP180;2808;51.240;6.794;2024-01-16T04:19:27;100442.00;;;1.70
5571;BMP180;2808;51.240;6.794;2024-01-16T04:21:54;100441.00;;;1.60
5571;BMP180;2808;51.240;6.794;2024-01-16T04:24:23;100437.00;;;1.60
5571;BMP180;2808;51.240;6.794;2024-01-16T04:26:52;100430.00;;;1.60
5571;BMP180;2808;51.240;6.794;2024-01-16T04:29:19;100430.00;;;1.60
5571;BMP180;2808;51.240;6.794;2024-01-16T04:31:47;100424.00;;;1.60
5571;BMP180;2808;51.240;6.794;2024-01-16T04:34:14;100430.00;;;1.60
5571;BMP180;2808;51.240;6.794;2024-01-16T04:36:41;100423.00;;;1.60
5571;BMP180;2808;51.240;6.794;2024-01-16T04:39:09;100421.00;;;1.70
5571;BMP180;2808;51.240;6.794;2024-01-16T04:41:38;100428.00;;;1.70
5571;BMP180;2808;51.240;6.794;2024-01-16T04:44:06;100419.00;;;1.60
5571;BMP180;2808;51.240;6.794;2024-01-16T04:46:33;100434.00;;;1.70
5571;BMP180;2808;51.240;6.794;2024-01-16T04:49:01;100432.00;;;1.70
5571;BMP180;2808;51.240;6.794;2024-01-16T04:51:28;100431.00;;;1.60
5571;BMP180;2808;51.240;6.794;2024-01-16T04:53:56;100431.00;;;1.60
5571;BMP180;2808;51.240;6.794;2024-01-16T04:56:23;100427.00;;;1.60
5571;BMP180;2808;51.240;6.794;2024-01-16T04:58:52;100438.00;;;1.60
5571;BMP180;2808;51.240;6.794;2024-01-16T05:01:19;100425.00;;;1.60
5571;BMP180;2808;51.240;6.794;2024-01-16T05:03:47;100423.00;;;1.60
5571;BMP180;2808;51.240;6.794;2024-01-16T05:06:15;100427.00;;;1.60
5571;BMP180;2808;51.240;6.794;2024-01-16T05:08:48;100423.00;;;1.60
5571;BMP180;2808;51.240;6.794;2024-01-16T05:11:19;100414.00;;;1.60
5571;BMP180;2808;51.240;6.794;2024-01-16T05:13:53;100421.00;;;1.60
5571;BMP180;2808;51.240;6.794;2024-01-16T05:16:26;100419.00;;;1.60
5571;BMP180;2808;51.240;6.794;2024-01-16T05:18:54;100414.00;;;1.60
5571;BMP180;2808;51.240;6.794;2024-01-16T05:21:21;100419.00;;;1.60
5571;BMP180;2808;51.240;6.794;2024-01-16T05:23:51;100427.00;;;1.60
5571;BMP180;2808;51.240;6.794;2024-01-16T05:26:25;100426.00;;;1.60
5571;BMP180;2808;51.240;6.794;2024-01-16T05:28:58;100418.00;;;1.60
5571;BMP180;2808;51.240;6.794;2024-01-16T05:31:28;100429.00;;;1.60
5571;BMP180;2808;51.240;6.794;2024-01-16T05:33:56;100427.00;;;1.60
5571;BMP180;2808;51.240;6.794;2024-01-16T05:36:24;100418.00;;;1.60
5571;BMP180;2808;51.240;6.794;2024-01-16T05:38:51;100420.00;;;1.60
5571;BMP180;2808;51.240;6.794;2024-01-16T05:41:21;100420.00;;;1.50
5571;BMP180;2808;51.240;6.794;2024-01-16T05:43:53;100415.00;;;1.50
5571;BMP180;2808;51.240;6.794;2024-01-16T05:46:22;100415.00;;;1.50
5571;BMP180;2808;51.240;6.794;2024-01-16T05:48:50;100404.00;;;1.50
5571;BMP180;2808;51.240;6.794;2024-01-16T05:51:17;100407.00;;;1.50
5571;BMP180;2808;51.240;6.794;2024-01-16T05:53:47;100409.00;;;1.50
5571;BMP180;2808;51.240;6.794;2024-01-16T05:56:39;100398.00;;;1.40
5571;BMP180;2808;51.240;6.794;2024-01-16T05:59:27;100395.00;;;1.40
5571;BMP180;2808;51.240;6.794;2024-01-16T06:01:56;100386.00;;;1.40
5571;BMP180;2808;51.240;6.794;2024-01-16T06:04:25;100391.00;;;1.30
5571;BMP180;2808;51.240;6.794;2024-01-16T06:06:56;100390.00;;;1.30
5571;BMP180;2808;51.240;6.794;2024-01-16T06:09:26;100391.00;;;1.30
5571;BMP180;2808;51.240;6.794;2024-01-16T06:11:54;100398.00;;;1.30
5571;BMP180;2808;51.240;6.794;2024-01-16T06:14:21;100391.00;;;1.20
5571;BMP180;2808;51.240;6.794;2024-01-16T06:16:48;100401.00;;;1.20
5571;BMP180;2808;51.240;6.794;2024-01-16T06:19:21;100396.00;;;1.20
5571;BMP180;2808;51.240;6.794;2024-01-16T06:21:51;100394.00;;;1.10
5571;BMP180;2808;51.240;6.794;2024-01-16T06:24:27;100394.00;;;1.10
5571;BMP180;2808;51.240;6.794;2024-01-16T06:27:10;100398.00;;;1.10
5571;BMP180;2808;51.240;6.794;2024-01-16T06:30:05;100394.00;;;1.00
5571;BMP180;2808;51.240;6.794;2024-01-16T06:35:56;100398.00;;;1.00
5571;BMP180;2808;51.240;6.794;2024-01-16T06:38:41;100409.00;;;1.00
5571;BMP180;2808;51.240;6.794;2024-01-16T06:41:09;100400.00;;;0.90
5571;BMP180;2808;51.240;6.794;2024-01-16T06:43:42;100404.00;;;0.90
5571;BMP180;2808;51.240;6.794;2024-01-16T06:46:10;100406.00;;;0.90
5571;BMP180;2808;51.240;6.794;2024-01-16T06:48:37;100402.00;;;0.90
5571;BMP180;2808;51.240;6.794;2024-01-16T06:51:09;100410.00;;;0.90
5571;BMP180;2808;51.240;6.794;2024-01-16T06:53:40;100410.00;;;0.80
5571;BMP180;2808;51.240;6.794;2024-01-16T06:56:07;100407.00;;;0.80
5571;BMP180;2808;51.240;6.794;2024-01-16T06:58:35;100409.00;;;0.80
5571;BMP180;2808;51.240;6.794;2024-01-16T07:01:03;100409.00;;;0.80
5571;BMP180;2808;51.240;6.794;2024-01-16T07:03:38;100419.00;;;0.80
5571;BMP180;2808;51.240;6.794;2024-01-16T07:06:10;100419.00;;;0.80
5571;BMP180;2808;51.240;6.794;2024-01-16T07:08:38;100421.00;;;0.80
5571;BMP180;2808;51.240;6.794;2024-01-16T07:11:05;100424.00;;;0.90
5571;BMP180;2808;51.240;6.794;2024-01-16T07:13:37;100422.00;;;0.80
5571;BMP180;2808;51.240;6.794;2024-01-16T07:16:04;100425.00;;;0.90
5571;BMP180;2808;51.240;6.794;2024-01-16T07:18:32;100437.00;;;0.90
5571;BMP180;2808;51.240;6.794;2024-01-16T07:21:00;100441.00;;;0.90
5571;BMP180;2808;51.240;6.794;2024-01-16T07:23:33;100451.00;;;0.90
5571;BMP180;2808;51.240;6.794;2024-01-16T07:26:01;100442.00;;;1.00
5571;BMP180;2808;51.240;6.794;2024-01-16T07:28:32;100455.00;;;0.90
5571;BMP180;2808;51.240;6.794;2024-01-16T07:31:08;100446.00;;;1.00
5571;BMP180;2808;51.240;6.794;2024-01-16T07:33:40;100448.00;;;1.00
5571;BMP180;2808;51.240;6.794;2024-01-16T07:36:09;100447.00;;;1.00
5571;BMP180;2808;51.240;6.794;2024-01-16T07:38:38;100445.00;;;1.00
5571;BMP180;2808;51.240;6.794;2024-01-16T07:41:06;100456.00;;;1.00
5571;BMP180;2808;51.240;6.794;2024-01-16T07:43:33;100457.00;;;1.00
5571;BMP180;2808;51.240;6.794;2024-01-16T07:46:01;100447.00;;;1.10
5571;BMP180;2808;51.240;6.794;2024-01-16T07:48:31;100444.00;;;1.20
5571;BMP180;2808;51.240;6.794;2024-01-16T07:51:04;100451.00;;;1.20
5571;BMP180;2808;51.240;6.794;2024-01-16T07:53:32;100460.00;;;1.20
5571;BMP180;2808;51.240;6.794;2024-01-16T07:56:01;100457.00;;;1.30
5571;BMP180;2808;51.240;6.794;2024-01-16T07:58:32;100459.00;;;1.30
5571;BMP180;2808;51.240;6.794;2024-01-16T08:01:12;100469.00;;;1.40
5571;BMP180;2808;51.240;6.794;2024-01-16T08:05:08;100463.00;;;1.40
5571;BMP180;2808;51.240;6.794;2024-01-16T08:08:16;100460.00;;;1.40
5571;BMP180;2808;51.240;6.794;2024-01-16T08:14:30;100466.00;;;1.40
5571;BMP180;2808;51.240;6.794;2024-01-16T08:16:59;100460.00;;;1.40
5571;BMP180;2808;51.240;6.794;2024-01-16T08:19:29;100458.00;;;1.40
5571;BMP180;2808;51.240;6.794;2024-01-16T08:21:58;100463.00;;;1.40
5571;BMP180;2808;51.240;6.794;2024-01-16T08:24:30;100463.00;;;1.30
5571;BMP180;2808;51.240;6.794;2024-01-16T08:26:59;100463.00;;;1.40
5571;BMP180;2808;51.240;6.794;2024-01-16T08:29:36;100470.00;;;1.40
5571;BMP180;2808;51.240;6.794;2024-01-16T08:32:13;100468.00;;;1.40
5571;BMP180;2808;51.240;6.794;2024-01-16T08:34:49;100473.00;;;1.40
5571;BMP180;2808;51.240;6.794;2024-01-16T08:37:25;100481.00;;;1.40
5571;BMP180;2808;51.240;6.794;2024-01-16T08:39:53;100492.00;;;1.40
5571;BMP180;2808;51.240;6.794;2024-01-16T08:42:29;100479.00;;;1.40
5571;BMP180;2808;51.240;6.794;2024-01-16T08:45:04;100483.00;;;1.50
5571;BMP180;2808;51.240;6.794;2024-01-16T08:47:46;100481.00;;;1.60
5571;BMP180;2808;51.240;6.794;2024-01-16T08:50:25;100481.00;;;1.60
5571;BMP180;2808;51.240;6.794;2024-01-16T08:53:04;100478.00;;;1.60
5571;BMP180;2808;51.240;6.794;2024-01-16T08:55:37;100476.00;;;1.60
5571;BMP180;2808;51.240;6.794;2024-01-16T08:58:05;100478.00;;;1.60
5571;BMP180;2808;51.240;6.794;2024-01-16T09:07:55;100467.00;;;1.70
5571;BMP180;2808;51.240;6.794;2024-01-16T09:11:13;100474.00;;;1.70
5571;BMP180;2808;51.240;6.794;2024-01-16T09:14:00;100478.00;;;1.60
5571;BMP180;2808;51.240;6.794;2024-01-16T09:16:31;100475.00;;;1.60
5571;BMP180;2808;51.240;6.794;2024-01-16T09:18:59;100482.00;;;1.60
5571;BMP180;2808;51.240;6.794;2024-01-16T09:24:37;100484.00;;;1.60
5571;BMP180;2808;51.240;6.794;2024-01-16T09:27:10;100480.00;;;1.60
5571;BMP180;2808;51.240;6.794;2024-01-16T09:29:45;100467.00;;;1.60
5571;BMP180;2808;51.240;6.794;2024-01-16T09:32:22;100482.00;;;1.60
5571;BMP180;2808;51.240;6.794;2024-01-16T09:34:58;100479.00;;;1.70
5571;BMP180;2808;51.240;6.794;2024-01-16T09:37:29;100484.00;;;1.70
5571;BMP180;2808;51.240;6.794;2024-01-16T09:40:04;100473.00;;;1.70
5571;BMP180;2808;51.240;6.794;2024-01-16T09:42:34;100475.00;;;1.70
5571;BMP180;2808;51.240;6.794;2024-01-16T09:45:05;100465.00;;;1.60
5571;BMP180;2808;51.240;6.794;2024-01-16T09:47:51;100471.00;;;1.60
5571;BMP180;2808;51.240;6.794;2024-01-16T09:50:20;100476.00;;;1.70
5571;BMP180;2808;51.240;6.794;2024-01-16T09:52:50;100471.00;;;1.70
5571;BMP180;2808;51.240;6.794;2024-01-16T09:55:18;100473.00;;;1.70
5571;BMP180;2808;51.240;6.794;2024-01-16T09:57:52;100476.00;;;1.70
5571;BMP180;2808;51.240;6.794;2024-01-16T10:00:20;100478.00;;;1.70
5571;BMP180;2808;51.240;6.794;2024-01-16T10:02:53;100474.00;;;1.70
5571;BMP180;2808;51.240;6.794;2024-01-16T10:05:43;100473.00;;;1.70
5571;BMP180;2808;51.240;6.794;2024-01-16T10:08:20;100465.00;;;1.70
5571;BMP180;2808;51.240;6.794;2024-01-16T10:10:48;100464.00;;;1.70
5571;BMP180;2808;51.240;6.794;2024-01-16T10:15:33;100455.00;;;1.70
5571;BMP180;2808;51.240;6.794;2024-01-16T10:16:59;100456.00;;;1.80
5571;BMP180;2808;51.240;6.794;2024-01-16T10:19:30;100447.00;;;1.80
5571;BMP180;2808;51.240;6.794;2024-01-16T10:22:02;100457.00;;;1.80
5571;BMP180;2808;51.240;6.794;2024-01-16T10:24:49;100450.00;;;1.90
5571;BMP180;2808;51.240;6.794;2024-01-16T10:27:19;100447.00;;;2.00
5571;BMP180;2808;51.240;6.794;2024-01-16T10:29:57;100440.00;;;2.00
5571;BMP180;2808;51.240;6.794;2024-01-16T10:32:28;100431.00;;;2.10
5571;BMP180;2808;51.240;6.794;2024-01-16T10:35:08;100441.00;;;2.20
5571;BMP180;2808;51.240;6.794;2024-01-16T10:37:43;100427.00;;;2.10
5571;BMP180;2808;51.240;6.794;2024-01-16T10:40:15;100417.00;;;2.10
5571;BMP180;2808;51.240;6.794;2024-01-16T10:42:44;100419.00;;;2.10
5571;BMP180;2808;51.240;6.794;2024-01-16T10:45:17;100419.00;;;2.10
5571;BMP180;2808;51.240;6.794;2024-01-16T10:47:49;100425.00;;;2.10
5571;BMP180;2808;51.240;6.794;2024-01-16T10:50:18;100426.00;;;2.10
5571;BMP180;2808;51.240;6.794;2024-01-16T10:52:47;100433.00;;;2.10
5571;BMP180;2808;51.240;6.794;2024-01-16T10:55:21;100434.00;;;2.10
5571;BMP180;2808;51.240;6.794;2024-01-16T10:57:59;100431.00;;;2.00
5571;BMP180;2808;51.240;6.794;2024-01-16T11:00:34;100422.00;;;2.00
5571;BMP180;2808;51.240;6.794;2024-01-16T11:03:07;100424.00;;;2.10
5571;BMP180;2808;51.240;6.794;2024-01-16T11:05:40;100421.00;;;2.10
5571;BMP180;2808;51.240;6.794;2024-01-16T11:08:09;100428.00;;;2.10
5571;BMP180;2808;51.240;6.794;2024-01-16T11:10:39;100418.00;;;2.10
5571;BMP180;2808;51.240;6.794;2024-01-16T11:13:08;100412.00;;;2.10
5571;BMP180;2808;51.240;6.794;2024-01-16T11:15:38;100420.00;;;2.10
5571;BMP180;2808;51.240;6.794;2024-01-16T11:18:10;100410.00;;;2.20
5571;BMP180;2808;51.240;6.794;2024-01-16T11:20:41;100409.00;;;2.20
5571;BMP180;2808;51.240;6.794;2024-01-16T11:23:33;100406.00;;;2.20
5571;BMP180;2808;51.240;6.794;2024-01-16T11:26:25;100415.00;;;2.20
5571;BMP180;2808;51.240;6.794;2024-01-16T11:28:53;100415.00;;;2.30
5571;BMP180;2808;51.240;6.794;2024-01-16T11:31:48;100424.00;;;2.30
5571;BMP180;2808;51.240;6.794;2024-01-16T11:37:35;100435.00;;;2.20
5571;BMP180;2808;51.240;6.794;2024-01-16T11:40:22;100428.00;;;2.30
5571;BMP180;2808;51.240;6.794;2024-01-16T14:24:14;100287.00;;;2.10
5571;BMP180;2808;51.240;6.794;2024-01-16T14:26:50;100287.00;;;2.10
5571;BMP180;2808;51.240;6.794;2024-01-16T14:29:38;100282.00;;;2.10
5571;BMP180;2808;51.240;6.794;2024-01-16T14:32:37;100280.00;;;2.00
5571;BMP180;2808;51.240;6.794;2024-01-16T14:35:11;100264.00;;;2.00
5571;BMP180;2808;51.240;6.794;2024-01-16T14:37:56;100275.00;;;1.90
5571;BMP180;2808;51.240;6.794;2024-01-16T14:40:44;100264.00;;;1.90
5571;BMP180;2808;51.240;6.794;2024-01-16T14:43:12;100275.00;;;1.80
5571;BMP180;2808;51.240;6.794;2024-01-16T14:45:41;100270.00;;;1.80
5571;BMP180;2808;51.240;6.794;2024-01-16T14:48:09;100268.00;;;1.80
5571;BMP180;2808;51.240;6.794;2024-01-16T14:50:37;100268.00;;;1.80
5571;BMP180;2808;51.240;6.794;2024-01-16T14:53:15;100265.00;;;1.80
5571;BMP180;2808;51.240;6.794;2024-01-16T14:55:47;100258.00;;;1.80
5571;BMP180;2808;51.240;6.794;2024-01-16T14:58:15;100261.00;;;1.70
5571;BMP180;2808;51.240;6.794;2024-01-16T15:01:10;100267.00;;;1.70
5571;BMP180;2808;51.240;6.794;2024-01-16T15:03:57;100255.00;;;1.70
5571;BMP180;2808;51.240;6.794;2024-01-16T15:06:31;100262.00;;;1.60
5571;BMP180;2808;51.240;6.794;2024-01-16T15:09:07;100245.00;;;1.60
5571;BMP180;2808;51.240;6.794;2024-01-16T15:11:42;100248.00;;;1.60
5571;BMP180;2808;51.240;6.794;2024-01-16T15:14:26;100243.00;;;1.60
5571;BMP180;2808;51.240;6.794;2024-01-16T15:16:54;100234.00;;;1.60
5571;BMP180;2808;51.240;6.794;2024-01-16T15:22:43;100225.00;;;1.50
5571;BMP180;2808;51.240;6.794;2024-01-16T15:25:52;100226.00;;;1.50
5571;BMP180;2808;51.240;6.794;2024-01-16T15:29:08;100232.00;;;1.40
5571;BMP180;2808;51.240;6.794;2024-01-16T15:32:06;100243.00;;;1.40
5571;BMP180;2808;51.240;6.794;2024-01-16T15:34:35;100239.00;;;1.40
5571;BMP180;2808;51.240;6.794;2024-01-16T15:40:10;100252.00;;;1.30
5571;BMP180;2808;51.240;6.794;2024-01-16T15:42:43;100257.00;;;1.30
5571;BMP180;2808;51.240;6.794;2024-01-16T15:45:30;100250.00;;;1.20
5571;BMP180;2808;51.240;6.794;2024-01-16T15:48:06;100257.00;;;1.20
5571;BMP180;2808;51.240;6.794;2024-01-16T15:50:48;100267.00;;;1.20
5571;BMP180;2808;51.240;6.794;2024-01-16T15:53:18;100268.00;;;1.10
5571;BMP180;2808;51.240;6.794;2024-01-16T15:56:09;100258.00;;;1.10
5571;BMP180;2808;51.240;6.794;2024-01-16T15:58:38;100264.00;;;1.10
5571;BMP180;2808;51.240;6.794;2024-01-16T16:01:34;100270.00;;;1.10
5571;BMP180;2808;51.240;6.794;2024-01-16T16:04:12;100274.00;;;1.10
5571;BMP180;2808;51.240;6.794;2024-01-16T16:06:56;100273.00;;;1.00
5571;BMP180;2808;51.240;6.794;2024-01-16T16:09:32;100276.00;;;1.00
5571;BMP180;2808;51.240;6.794;2024-01-16T16:12:20;100280.00;;;1.00
5571;BMP180;2808;51.240;6.794;2024-01-16T16:14:50;100273.00;;;1.00
5571;BMP180;2808;51.240;6.794;2024-01-16T16:17:19;100274.00;;;0.90
5571;BMP180;2808;51.240;6.794;2024-01-16T16:19:52;100270.00;;;0.90
5571;BMP180;2808;51.240;6.794;2024-01-16T16:22:20;100279.00;;;0.90
5571;BMP180;2808;51.240;6.794;2024-01-16T16:27:44;100277.00;;;0.90
5571;BMP180;2808;51.240;6.794;2024-01-16T16:30:18;100274.00;;;0.90
5571;BMP180;2808;51.240;6.794;2024-01-16T16:32:49;100287.00;;;0.80
5571;BMP180;2808;51.240;6.794;2024-01-16T16:35:24;100289.00;;;0.90
5571;BMP180;2808;51.240;6.794;2024-01-16T16:37:52;100291.00;;;1.10
5571;BMP180;2808;51.240;6.794;2024-01-16T16:40:19;100293.00;;;1.00
5571;BMP180;2808;51.240;6.794;2024-01-16T16:42:50;100295.00;;;1.00
5571;BMP180;2808;51.240;6.794;2024-01-16T16:45:18;100294.00;;;1.00
5571;BMP180;2808;51.240;6.794;2024-01-16T16:47:45;100284.00;;;0.90
5571;BMP180;2808;51.240;6.794;2024-01-16T16:50:15;100282.00;;;0.90
5571;BMP180;2808;51.240;6.794;2024-01-16T16:52:42;100285.00;;;0.90
5571;BMP180;2808;51.240;6.794;2024-01-16T16:55:10;100271.00;;;0.80
5571;BMP180;2808;51.240;6.794;2024-01-16T16:57:41;100267.00;;;0.70
5571;BMP180;2808;51.240;6.794;2024-01-16T17:00:28;100271.00;;;0.70
5571;BMP180;2808;51.240;6.794;2024-01-16T17:02:55;100269.00;;;0.70
5571;BMP180;2808;51.240;6.794;2024-01-16T17:05:24;100272.00;;;0.60
5571;BMP180;2808;51.240;6.794;2024-01-16T17:07:51;100276.00;;;0.70
5571;BMP180;2808;51.240;6.794;2024-01-16T17:10:19;100269.00;;;0.70
5571;BMP180;2808;51.240;6.794;2024-01-16T17:12:47;100271.00;;;0.70
5571;BMP180;2808;51.240;6.794;2024-01-16T17:15:16;100271.00;;;0.60
5571;BMP180;2808;51.240;6.794;2024-01-16T17:17:43;100262.00;;;0.60
5571;BMP180;2808;51.240;6.794;2024-01-16T17:20:14;100264.00;;;0.60
5571;BMP180;2808;51.240;6.794;2024-01-16T17:22:43;100257.00;;;0.60
5571;BMP180;2808;51.240;6.794;2024-01-16T17:25:11;100257.00;;;0.60
5571;BMP180;2808;51.240;6.794;2024-01-16T17:27:38;100250.00;;;0.60
5571;BMP180;2808;51.240;6.794;2024-01-16T17:30:07;100249.00;;;0.50
5571;BMP180;2808;51.240;6.794;2024-01-16T17:32:34;100247.00;;;0.50
5571;BMP180;2808;51.240;6.794;2024-01-16T17:35:02;100238.00;;;0.50
5571;BMP180;2808;51.240;6.794;2024-01-16T17:37:29;100239.00;;;0.50
5571;BMP180;2808;51.240;6.794;2024-01-16T17:39:58;100231.00;;;0.50
5571;BMP180;2808;51.240;6.794;2024-01-16T17:42:27;100235.00;;;0.40
5571;BMP180;2808;51.240;6.794;2024-01-16T17:44:55;100240.00;;;0.40
5571;BMP180;2808;51.240;6.794;2024-01-16T17:47:25;100245.00;;;0.40
5571;BMP180;2808;51.240;6.794;2024-01-16T17:49:54;100245.00;;;0.40
5571;BMP180;2808;51.240;6.794;2024-01-16T17:52:21;100244.00;;;0.40
5571;BMP180;2808;51.240;6.794;2024-01-16T17:54:49;100240.00;;;0.40
5571;BMP180;2808;51.240;6.794;2024-01-16T17:57:18;100234.00;;;0.40
5571;BMP180;2808;51.240;6.794;2024-01-16T17:59:45;100226.00;;;0.30
5571;BMP180;2808;51.240;6.794;2024-01-16T18:02:13;100220.00;;;0.40
5571;BMP180;2808;51.240;6.794;2024-01-16T18:04:48;100207.00;;;0.30
5571;BMP180;2808;51.240;6.794;2024-01-16T18:07:17;100211.00;;;0.30
5571;BMP180;2808;51.240;6.794;2024-01-16T18:09:45;100200.00;;;0.30
5571;BMP180;2808;51.240;6.794;2024-01-16T18:12:12;100197.00;;;0.30
5571;BMP180;2808;51.240;6.794;2024-01-16T18:14:41;100199.00;;;0.30
5571;BMP180;2808;51.240;6.794;2024-01-16T18:17:11;100194.00;;;0.20